Time;durP1;ratioP1;P1;durP2;ratioP2;P2;SDS_P1;SDS_P2;PMS_P1;PMS_P2;Temp;Humidity;BMP_temperature;BMP_pressure;BME280_temperature;BME280_humidity;BME280_pressure;Samples;Min_cycle;Max_cycle;Signal;HPM_P1;HPM_P2
2023/03/07 00:00:15;;;;;;;21.00;12.75;;;;;;;7.85;61.46;100049.22;4924484;29;20063;-64
2023/03/07 00:02:43;;;;;;;25.88;12.18;;;;;;;7.83;61.78;100050.66;4920921;29;20070;-64
2023/03/07 00:05:13;;;;;;;21.75;12.82;;;;;;;7.60;62.28;100051.78;4915657;29;20047;-65
2023/03/07 00:07:41;;;;;;;22.77;13.03;;;;;;;7.69;62.52;100049.88;4924478;29;20059;-64
2023/03/07 00:10:09;;;;;;;18.50;12.15;;;;;;;7.61;62.09;100045.97;4919412;29;20060;-71
2023/03/07 00:12:36;;;;;;;18.98;12.48;;;;;;;7.73;62.00;100048.16;4926934;29;20065;-71
2023/03/07 00:15:04;;;;;;;20.63;12.35;;;;;;;7.70;62.12;100046.03;4928100;29;20343;-72
2023/03/07 00:17:31;;;;;;;20.33;12.63;;;;;;;7.67;62.09;100043.94;4920832;29;20059;-72
2023/03/07 00:19:59;;;;;;;19.33;12.23;;;;;;;7.80;61.42;100045.78;4907256;29;20064;-71
2023/03/07 00:22:26;;;;;;;20.35;12.75;;;;;;;8.11;60.61;100041.16;4910628;29;20059;-71
2023/03/07 00:24:54;;;;;;;20.88;11.60;;;;;;;8.05;60.78;100039.69;4915787;29;20053;-71
2023/03/07 00:27:21;;;;;;;21.67;12.23;;;;;;;7.72;61.41;100041.06;4901911;29;20060;-71
2023/03/07 00:29:49;;;;;;;20.95;12.55;;;;;;;7.61;62.30;100050.66;4899887;29;20060;-72
2023/03/07 00:32:16;;;;;;;21.60;13.05;;;;;;;7.50;62.64;100041.84;4906918;29;20262;-72
2023/03/07 00:34:44;;;;;;;23.77;12.95;;;;;;;7.75;62.10;100037.69;4915028;29;20060;-74
2023/03/07 00:37:12;;;;;;;18.42;11.85;;;;;;;7.79;61.43;100034.00;4916476;29;20499;-72
2023/03/07 00:39:41;;;;;;;19.95;12.55;;;;;;;7.89;61.13;100027.47;4906673;29;20060;-71
2023/03/07 00:42:08;;;;;;;23.58;13.27;;;;;;;7.65;61.45;100027.00;4903041;29;20342;-71
2023/03/07 00:44:36;;;;;;;22.30;12.10;;;;;;;7.56;62.06;100026.91;4902621;29;20479;-72
2023/03/07 00:47:03;;;;;;;20.30;11.95;;;;;;;7.75;61.65;100021.25;4916138;29;20048;-73
2023/03/07 00:49:30;;;;;;;19.98;11.93;;;;;;;7.88;60.97;100018.44;4919596;29;20056;-72
2023/03/07 00:51:58;;;;;;;19.48;12.63;;;;;;;7.99;60.63;100017.06;4915580;29;20067;-71
2023/03/07 00:54:27;;;;;;;21.33;13.10;;;;;;;7.80;61.12;100004.66;4919752;29;20052;-72
2023/03/07 00:56:54;;;;;;;19.35;12.13;;;;;;;7.80;61.03;100010.16;4917648;29;20057;-72
2023/03/07 00:59:22;;;;;;;22.25;11.48;;;;;;;7.70;61.14;100007.66;4916993;29;20420;-71
2023/03/07 01:01:49;;;;;;;24.67;12.30;;;;;;;8.12;60.17;99987.94;4893460;29;20056;-71
2023/03/07 01:04:17;;;;;;;21.30;11.80;;;;;;;7.80;60.88;100001.94;4903033;29;20053;-72
2023/03/07 01:06:44;;;;;;;21.42;12.48;;;;;;;7.69;60.98;99993.16;4902484;29;20044;-72
2023/03/07 01:09:12;;;;;;;23.65;13.45;;;;;;;7.61;61.18;99993.09;4934164;29;20063;-72
2023/03/07 01:11:39;;;;;;;20.38;12.32;;;;;;;7.74;61.11;99986.75;4915826;29;20052;-72
2023/03/07 01:14:07;;;;;;;20.23;12.30;;;;;;;7.79;60.53;99981.91;4902037;29;20044;-72
2023/03/07 01:16:36;;;;;;;21.75;12.45;;;;;;;7.71;61.28;99979.13;4915318;29;20040;-71
2023/03/07 01:19:06;;;;;;;20.08;12.02;;;;;;;7.74;60.81;99973.84;4920021;29;20431;-72
2023/03/07 01:21:38;;;;;;;19.15;12.43;;;;;;;7.63;61.13;99974.41;4917994;29;20055;-71
2023/03/07 01:24:09;;;;;;;19.83;12.13;;;;;;;7.72;60.65;99978.03;4904328;29;20055;-71
2023/03/07 01:26:36;;;;;;;19.30;11.82;;;;;;;7.59;61.15;99957.78;4902672;29;20059;-72
2023/03/07 01:29:05;;;;;;;21.08;12.55;;;;;;;7.66;61.24;99968.28;4932376;29;20522;-71
2023/03/07 01:31:35;;;;;;;21.33;12.63;;;;;;;7.57;61.07;99961.94;4905369;29;20067;-71
2023/03/07 01:34:03;;;;;;;21.15;12.38;;;;;;;7.49;61.02;99955.28;4937473;29;20051;-72
2023/03/07 01:36:39;;;;;;;21.50;11.93;;;;;;;7.75;60.31;99947.25;4918910;29;20057;-71
2023/03/07 01:39:12;;;;;;;18.38;11.30;;;;;;;7.77;60.20;99945.81;4922606;29;20412;-71
2023/03/07 01:41:54;;;;;;;19.70;11.43;;;;;;;7.87;59.94;99945.53;4916376;29;20063;-72
2023/03/07 01:44:25;;;;;;;21.88;12.38;;;;;;;7.72;60.28;99943.19;4919406;29;20058;-72
2023/03/07 01:46:58;;;;;;;25.42;13.38;;;;;;;7.47;61.19;99937.53;4915282;29;20044;-71
2023/03/07 01:49:37;;;;;;;23.60;12.48;;;;;;;7.54;60.90;99930.50;4922125;29;20059;-72
2023/03/07 01:52:09;;;;;;;19.75;12.07;;;;;;;7.54;60.91;99936.00;4929078;29;20059;-72
2023/03/07 01:54:47;;;;;;;22.27;12.18;;;;;;;7.35;61.74;99934.56;4887981;29;20059;-72
2023/03/07 01:57:19;;;;;;;20.65;12.80;;;;;;;7.23;61.78;99926.09;4926201;29;20055;-71
2023/03/07 01:59:50;;;;;;;21.77;12.27;;;;;;;7.44;61.36;99924.47;4936585;29;20055;-71
2023/03/07 02:02:18;;;;;;;18.48;12.30;;;;;;;7.24;62.04;99917.56;4916910;29;20476;-71
2023/03/07 02:05:15;;;;;;;21.45;11.82;;;;;;;7.24;61.76;99916.72;4907431;29;20054;-71
2023/03/07 02:07:45;;;;;;;22.17;12.38;;;;;;;7.33;61.63;99914.88;4917448;29;20051;-71
2023/03/07 02:10:15;;;;;;;22.25;12.93;;;;;;;7.48;61.16;99903.56;4882780;29;20064;-71
2023/03/07 02:12:43;;;;;;;17.33;11.60;;;;;;;7.62;60.98;99901.50;4918779;29;20056;-72
2023/03/07 02:15:12;;;;;;;20.05;12.10;;;;;;;7.62;60.69;99888.63;4921545;29;20044;-71
2023/03/07 02:17:40;;;;;;;19.67;12.15;;;;;;;7.48;61.01;99890.66;4922733;29;20384;-72
2023/03/07 02:20:45;;;;;;;20.48;12.13;;;;;;;7.50;61.06;99893.06;4902558;29;20075;-71
2023/03/07 02:23:56;;;;;;;22.05;12.55;;;;;;;7.41;61.36;99884.78;4919352;29;20048;-72
2023/03/07 02:26:37;;;;;;;21.58;12.05;;;;;;;7.40;61.37;99880.44;4899600;29;20049;-71
2023/03/07 02:29:06;;;;;;;22.10;12.48;;;;;;;7.36;61.58;99882.19;4900054;29;20455;-72
2023/03/07 02:31:33;;;;;;;21.42;12.60;;;;;;;7.24;61.97;99883.88;4922707;29;20072;-73
2023/03/07 02:34:01;;;;;;;22.83;12.38;;;;;;;7.32;62.02;99878.44;4922299;29;20059;-73
2023/03/07 02:36:34;;;;;;;22.38;12.77;;;;;;;7.34;61.90;99872.69;4917434;29;20048;-70
2023/03/07 02:39:13;;;;;;;22.13;12.77;;;;;;;7.35;61.73;99866.06;4919948;29;20052;-72
2023/03/07 02:41:41;;;;;;;20.67;12.07;;;;;;;7.30;61.82;99874.41;4901676;29;20052;-72
2023/03/07 02:44:21;;;;;;;22.38;12.20;;;;;;;7.30;61.91;99866.19;4923073;29;20055;-72
2023/03/07 02:46:48;;;;;;;22.13;12.60;;;;;;;7.39;61.63;99853.38;4927619;29;20051;-72
2023/03/07 02:49:17;;;;;;;23.33;12.85;;;;;;;7.49;61.56;99853.91;4921810;29;20488;-72
2023/03/07 02:51:44;;;;;;;21.73;12.00;;;;;;;7.59;60.30;99853.63;4920980;29;20059;-70
2023/03/07 02:54:12;;;;;;;23.60;12.55;;;;;;;7.45;61.05;99852.09;4923631;29;20052;-71
2023/03/07 02:56:39;;;;;;;20.10;12.05;;;;;;;7.40;61.13;99853.06;4920860;29;20055;-72
2023/03/07 02:59:06;;;;;;;22.35;11.43;;;;;;;7.11;62.47;99855.44;4923028;29;20048;-72
2023/03/07 03:01:35;;;;;;;22.48;11.95;;;;;;;7.04;62.40;99855.06;4892558;29;20063;-71
2023/03/07 03:04:02;;;;;;;18.35;11.05;;;;;;;7.23;62.31;99854.88;4940393;29;20054;-72
2023/03/07 03:06:29;;;;;;;18.98;11.85;;;;;;;7.16;62.27;99851.75;4932375;29;20056;-70
2023/03/07 03:08:57;;;;;;;23.48;12.05;;;;;;;7.06;62.59;99849.28;4921919;29;20047;-71
2023/03/07 03:11:25;;;;;;;19.83;11.32;;;;;;;7.02;62.87;99851.84;4897995;29;20051;-72
2023/03/07 03:13:53;;;;;;;20.38;11.70;;;;;;;7.23;61.93;99843.91;4940660;29;20052;-71
2023/03/07 03:16:21;;;;;;;19.70;11.88;;;;;;;7.39;61.54;99839.69;4919768;29;20048;-71
2023/03/07 03:18:48;;;;;;;18.98;11.73;;;;;;;7.33;61.83;99836.25;4921292;29;20083;-71
2023/03/07 03:21:16;;;;;;;19.33;12.05;;;;;;;7.30;61.63;99834.16;4923107;29;20060;-71
2023/03/07 03:23:43;;;;;;;20.58;11.80;;;;;;;7.29;61.74;99835.25;4936998;29;20055;-73
2023/03/07 03:26:11;;;;;;;21.58;11.88;;;;;;;7.25;62.20;99825.25;4928702;29;20055;-70
2023/03/07 03:28:39;;;;;;;17.98;11.38;;;;;;;7.47;61.92;99827.94;4922846;29;20052;-71
2023/03/07 03:31:09;;;;;;;20.08;11.77;;;;;;;7.46;61.52;99821.66;4926078;29;20047;-72
2023/03/07 03:33:38;;;;;;;20.80;12.25;;;;;;;7.43;61.65;99822.28;4908608;29;20067;-72
2023/03/07 03:36:10;;;;;;;19.80;11.68;;;;;;;7.39;61.67;99828.72;4903712;29;20056;-72
2023/03/07 03:38:38;;;;;;;21.85;12.50;;;;;;;7.22;61.66;99815.72;4931276;29;20495;-73
2023/03/07 03:41:12;;;;;;;19.88;11.90;;;;;;;7.30;61.78;99814.16;4915858;29;20121;-72
2023/03/07 03:43:39;;;;;;;19.23;11.70;;;;;;;7.35;61.94;99809.34;4905890;29;20048;-72
2023/03/07 03:46:07;;;;;;;20.92;12.30;;;;;;;7.29;61.95;99812.53;4926259;29;20054;-71
2023/03/07 03:48:36;;;;;;;17.33;11.00;;;;;;;7.17;62.76;99812.28;4930810;29;20491;-72
2023/03/07 03:51:06;;;;;;;19.10;11.15;;;;;;;7.24;62.25;99809.91;4907278;29;20052;-72
2023/03/07 03:53:36;;;;;;;17.70;11.48;;;;;;;7.19;62.32;99799.09;4889971;29;20237;-70
2023/03/07 03:56:06;;;;;;;20.85;12.05;;;;;;;7.24;62.09;99802.53;4925839;29;20530;-71
2023/03/07 03:58:34;;;;;;;18.55;10.90;;;;;;;7.17;62.43;99799.41;4910741;29;20052;-73
2023/03/07 04:01:04;;;;;;;19.63;12.32;;;;;;;6.94;63.22;99797.03;4931007;29;20048;-71
2023/03/07 04:03:37;;;;;;;;;;;;;;;7.03;63.01;99787.72;4923623;29;20497;-71
2023/03/07 04:06:22;;;;;;;20.38;11.23;;;;;;;7.16;62.67;99786.03;4911203;29;19930;-71
2023/03/07 04:08:50;;;;;;;19.92;11.55;;;;;;;7.23;62.15;99787.22;4924744;29;20055;-72
2023/03/07 04:11:19;;;;;;;18.75;12.13;;;;;;;7.16;62.76;99784.13;4920721;29;20051;-72
2023/03/07 04:13:47;;;;;;;19.98;11.40;;;;;;;7.27;62.26;99779.97;4918976;29;20048;-72
2023/03/07 04:16:15;;;;;;;20.83;11.68;;;;;;;7.33;62.19;99788.88;4884502;29;20056;-71
2023/03/07 04:18:43;;;;;;;19.75;12.13;;;;;;;7.45;61.48;99786.34;4923714;29;20067;-71
2023/03/07 04:21:11;;;;;;;19.55;12.38;;;;;;;7.40;61.87;99786.50;4938212;29;20060;-72
2023/03/07 04:23:39;;;;;;;19.48;11.80;;;;;;;7.20;62.40;99790.56;4907893;29;20499;-71
2023/03/07 04:26:08;;;;;;;19.60;12.32;;;;;;;6.96;62.94;99786.56;4931402;29;20052;-70
2023/03/07 04:28:45;;;;;;;20.27;11.40;;;;;;;6.95;63.17;99784.94;4905448;29;20423;-71
2023/03/07 04:31:27;;;;;;;19.27;10.98;;;;;;;7.07;63.61;99782.44;4906065;29;20055;-71
2023/03/07 04:33:57;;;;;;;18.85;12.38;;;;;;;6.94;63.44;99783.34;4917694;29;20051;-69
2023/03/07 04:36:25;;;;;;;21.67;12.23;;;;;;;6.82;64.12;99787.44;4905033;29;20056;-71
2023/03/07 04:38:52;;;;;;;23.70;12.25;;;;;;;6.93;64.02;99778.97;4903585;29;20059;-71
2023/03/07 04:41:24;;;;;;;23.25;12.30;;;;;;;7.12;63.02;99779.56;4918758;29;20048;-70
2023/03/07 04:43:57;;;;;;;21.30;12.30;;;;;;;7.07;63.10;99780.50;4920667;29;20055;-73
2023/03/07 04:46:25;;;;;;;22.13;12.75;;;;;;;6.99;63.46;99777.72;4911496;29;20055;-72
2023/03/07 04:48:53;;;;;;;22.10;12.25;;;;;;;6.98;63.49;99781.56;4923173;29;20349;-71
2023/03/07 04:51:21;;;;;;;21.30;12.88;;;;;;;7.19;63.04;99771.72;4924899;29;20075;-72
2023/03/07 04:53:49;;;;;;;21.02;12.10;;;;;;;7.06;63.09;99770.66;4920429;29;20059;-73
2023/03/07 04:56:17;;;;;;;22.60;12.05;;;;;;;7.30;62.91;99771.16;4906114;29;20061;-72
2023/03/07 04:58:46;;;;;;;20.25;12.43;;;;;;;7.10;63.18;99765.38;4917286;29;20052;-73
2023/03/07 05:01:13;;;;;;;21.30;11.77;;;;;;;7.20;63.14;99768.66;4902045;29;20419;-65
2023/03/07 05:03:43;;;;;;;20.98;11.98;;;;;;;7.10;63.25;99768.94;4918624;29;20415;-63
2023/03/07 05:06:13;;;;;;;24.90;12.23;;;;;;;7.18;62.56;99764.63;4887200;29;20063;-63
2023/03/07 05:08:45;;;;;;;19.77;11.68;;;;;;;7.15;62.99;99770.75;4902459;29;20056;-69
2023/03/07 05:11:13;;;;;;;24.08;11.82;;;;;;;7.23;62.81;99767.22;4902805;29;20055;-63
2023/03/07 05:13:40;;;;;;;24.00;12.75;;;;;;;7.27;63.10;99760.00;4919740;29;20056;-70
2023/03/07 05:16:08;;;;;;;19.40;12.20;;;;;;;7.35;62.75;99756.50;4906777;29;20054;-71
2023/03/07 05:18:36;;;;;;;22.30;12.35;;;;;;;7.33;62.50;99759.56;4903304;29;20047;-70
2023/03/07 05:21:04;;;;;;;22.35;12.32;;;;;;;7.25;62.81;99754.03;4914675;29;20053;-71
2023/03/07 05:23:32;;;;;;;18.13;11.85;;;;;;;7.35;62.95;99753.75;4914733;29;20061;-71
2023/03/07 05:25:59;;;;;;;20.10;11.15;;;;;;;7.61;62.24;99751.94;4881938;29;20738;-72
2023/03/07 05:28:27;;;;;;;25.00;12.05;;;;;;;7.20;62.73;99741.28;4895484;29;20061;-70
2023/03/07 05:30:54;;;;;;;20.42;11.85;;;;;;;7.10;63.36;99749.75;4893237;29;20056;-71
2023/03/07 05:33:22;;;;;;;20.27;12.18;;;;;;;7.21;63.24;99753.84;4899189;29;20060;-72
2023/03/07 05:35:50;;;;;;;21.75;12.00;;;;;;;7.72;61.39;99747.78;4892294;29;20052;-72
2023/03/07 05:38:18;;;;;;;20.40;11.77;;;;;;;7.48;62.29;99739.94;4901132;29;20053;-72
2023/03/07 05:40:45;;;;;;;23.42;12.05;;;;;;;7.34;62.61;99735.72;4890968;29;20052;-72
2023/03/07 05:43:13;;;;;;;18.42;11.57;;;;;;;7.40;62.14;99734.44;4884011;29;20060;-72
2023/03/07 05:45:41;;;;;;;21.17;12.35;;;;;;;7.14;63.53;99730.78;4880630;29;20072;-71
2023/03/07 05:48:08;;;;;;;21.17;11.73;;;;;;;7.16;63.45;99726.63;4901653;29;20048;-74
2023/03/07 05:50:37;;;;;;;20.20;11.50;;;;;;;7.20;63.29;99726.78;4888862;29;20059;-73
2023/03/07 05:53:05;;;;;;;19.00;11.75;;;;;;;7.08;63.20;99721.09;4881844;29;20140;-71
2023/03/07 05:55:33;;;;;;;21.05;11.93;;;;;;;7.22;63.28;99728.06;4896478;29;20057;-72
2023/03/07 05:58:01;;;;;;;20.23;11.40;;;;;;;7.11;63.41;99725.94;4881882;29;20045;-72
2023/03/07 06:00:28;;;;;;;20.85;10.98;;;;;;;7.07;63.86;99719.47;4880592;29;20064;-72
2023/03/07 06:03:03;;;;;;;19.05;12.30;;;;;;;7.17;63.47;99710.97;4895512;29;20065;-71
2023/03/07 06:05:31;;;;;;;20.02;11.43;;;;;;;6.99;64.24;99714.75;4895920;29;20053;-72
2023/03/07 06:07:59;;;;;;;21.15;11.68;;;;;;;7.05;63.92;99705.28;4900845;29;20547;-72
2023/03/07 06:10:26;;;;;;;20.80;12.23;;;;;;;6.74;64.71;99706.09;4883842;29;20052;-73
2023/03/07 06:12:54;;;;;;;21.25;11.40;;;;;;;6.74;64.44;99708.84;4866182;29;20061;-73
2023/03/07 06:15:21;;;;;;;16.92;10.60;;;;;;;6.69;65.02;99711.66;4911580;29;20056;-72
2023/03/07 06:17:55;;;;;;;22.60;11.88;;;;;;;6.77;64.92;99718.31;4909723;29;20056;-73
2023/03/07 06:20:23;;;;;;;19.73;11.93;;;;;;;6.71;65.02;99712.16;4892308;29;20064;-73
2023/03/07 06:22:53;;;;;;;20.23;11.32;;;;;;;6.90;64.12;99705.69;4898992;29;20071;-74
2023/03/07 06:25:21;;;;;;;21.67;11.15;;;;;;;6.72;64.94;99710.25;4899197;29;20063;-74
2023/03/07 06:27:49;;;;;;;19.60;11.80;;;;;;;6.84;64.44;99710.47;4902757;29;20056;-74
2023/03/07 06:30:16;;;;;;;20.63;11.57;;;;;;;6.76;64.78;99711.25;4933657;29;20048;-72
2023/03/07 06:32:45;;;;;;;20.52;11.60;;;;;;;6.89;64.66;99717.78;4908852;29;20060;-72
2023/03/07 06:35:12;;;;;;;22.73;12.20;;;;;;;6.74;64.69;99711.56;4924478;29;20227;-74
2023/03/07 06:37:40;;;;;;;30.25;18.15;;;;;;;6.77;64.88;99705.47;4919282;29;20052;-75
2023/03/07 06:40:09;;;;;;;24.42;13.07;;;;;;;7.03;64.44;99708.34;4900201;29;20053;-69
2023/03/07 06:42:38;;;;;;;21.42;11.55;;;;;;;6.99;64.25;99712.81;4916944;29;20049;-72
2023/03/07 06:45:08;;;;;;;18.23;11.30;;;;;;;7.15;63.76;99703.06;4902188;29;20052;-72
2023/03/07 06:47:35;;;;;;;23.48;11.90;;;;;;;7.42;63.27;99707.53;4914666;29;20057;-73
2023/03/07 06:50:05;;;;;;;19.97;11.37;;;;;;;7.24;62.80;99712.13;4890259;29;20055;-74
2023/03/07 06:52:34;;;;;;;18.83;11.13;;;;;;;7.10;63.72;99713.34;4900038;29;20527;-73
2023/03/07 06:55:02;;;;;;;19.92;11.80;;;;;;;6.98;64.06;99711.22;4920420;29;20048;-71
2023/03/07 06:57:32;;;;;;;22.33;11.27;;;;;;;6.99;64.12;99703.81;4902013;29;20056;-73
2023/03/07 07:00:04;;;;;;;20.48;12.02;;;;;;;6.88;64.19;99705.19;4915161;29;20068;-72
2023/03/07 07:02:32;;;;;;;21.35;12.18;;;;;;;6.93;63.98;99711.34;4881405;29;20079;-73
2023/03/07 07:05:01;;;;;;;18.13;10.70;;;;;;;7.08;64.04;99710.16;4899046;29;20052;-72
2023/03/07 07:07:29;;;;;;;21.58;12.13;;;;;;;7.04;64.09;99709.97;4930355;29;20082;-72
2023/03/07 07:09:58;;;;;;;21.15;11.23;;;;;;;6.84;64.42;99711.31;4887204;29;20040;-72
2023/03/07 07:12:25;;;;;;;18.98;11.60;;;;;;;7.11;64.46;99712.25;4909926;29;20052;-72
2023/03/07 07:14:55;;;;;;;19.02;10.30;;;;;;;6.90;64.36;99711.97;4912108;29;20055;-70
2023/03/07 07:17:23;;;;;;;18.98;10.63;;;;;;;6.91;64.31;99716.31;4914219;29;20480;-70
2023/03/07 07:19:50;;;;;;;20.58;11.80;;;;;;;6.76;64.91;99727.66;4911567;29;20057;-71
2023/03/07 07:22:18;;;;;;;19.25;11.20;;;;;;;6.89;64.29;99726.78;4881831;29;20068;-72
2023/03/07 07:24:45;;;;;;;18.58;11.30;;;;;;;6.86;64.39;99724.66;4901006;29;20053;-72
2023/03/07 07:27:13;;;;;;;18.98;11.40;;;;;;;6.95;64.55;99725.53;4895488;29;20052;-71
2023/03/07 07:29:41;;;;;;;17.80;11.00;;;;;;;6.87;64.81;99720.00;4896507;29;20052;-71
2023/03/07 07:32:08;;;;;;;23.30;11.02;;;;;;;6.92;64.79;99726.16;4883909;29;20060;-72
2023/03/07 07:34:36;;;;;;;21.23;11.02;;;;;;;7.10;64.18;99729.78;4906192;29;20061;-72
2023/03/07 07:37:05;;;;;;;17.45;10.63;;;;;;;7.19;63.35;99731.44;4875058;29;20051;-72
2023/03/07 07:39:33;;;;;;;15.73;9.65;;;;;;;7.16;63.59;99723.88;4900464;29;20516;-71
2023/03/07 07:42:00;;;;;;;19.33;10.95;;;;;;;7.21;63.57;99718.25;4888747;29;20052;-73
2023/03/07 07:44:32;;;;;;;18.55;10.25;;;;;;;7.43;62.89;99717.34;4886841;29;20045;-72
2023/03/07 07:47:04;;;;;;;14.70;9.25;;;;;;;8.30;64.09;99707.06;4913312;29;20049;-72
2023/03/07 07:49:31;;;;;;;18.15;9.82;;;;;;;8.61;60.06;99717.88;4880355;29;20052;-70
2023/03/07 07:51:59;;;;;;;19.33;9.48;;;;;;;8.88;59.05;99710.09;4881393;29;20052;-72
2023/03/07 07:54:27;;;;;;;18.55;10.45;;;;;;;8.72;57.95;99716.41;4881516;29;20052;-70
2023/03/07 07:56:56;;;;;;;16.98;10.55;;;;;;;8.17;59.22;99710.75;4896074;29;20053;-72
2023/03/07 07:59:24;;;;;;;16.77;10.15;;;;;;;7.94;60.26;99718.31;4851790;29;20060;-73
2023/03/07 08:01:52;;;;;;;19.65;10.30;;;;;;;7.98;60.44;99721.22;4892811;29;20813;-72
2023/03/07 08:04:20;;;;;;;92.00;15.60;;;;;;;7.98;60.68;99726.72;4882869;29;20056;-73
2023/03/07 08:06:47;;;;;;;17.45;10.02;;;;;;;7.95;60.83;99725.41;4882822;29;20064;-71
2023/03/07 08:09:14;;;;;;;17.98;10.50;;;;;;;7.88;60.72;99727.00;4883327;29;20045;-73
2023/03/07 08:11:42;;;;;;;24.25;12.98;;;;;;;8.10;60.47;99724.16;4882650;29;20057;-72
2023/03/07 08:14:09;;;;;;;19.67;9.93;;;;;;;8.19;60.35;99724.97;4883783;29;20056;-72
2023/03/07 08:16:37;;;;;;;17.77;10.40;;;;;;;8.11;60.28;99733.97;4883695;29;20072;-72
2023/03/07 08:19:04;;;;;;;17.67;10.70;;;;;;;7.87;60.53;99733.63;4888761;29;20049;-72
2023/03/07 08:21:32;;;;;;;18.05;10.27;;;;;;;7.75;61.14;99734.25;4918240;29;20060;-72
2023/03/07 08:23:59;;;;;;;22.95;10.18;;;;;;;7.76;61.89;99737.78;4904088;29;20039;-70
2023/03/07 08:26:27;;;;;;;17.65;10.05;;;;;;;9.40;59.79;99742.88;4921110;29;20051;-68
2023/03/07 08:28:54;;;;;;;16.48;9.57;;;;;;;9.75;57.84;99736.91;4902347;29;20044;-67
2023/03/07 08:31:23;;;;;;;16.92;9.82;;;;;;;10.05;56.02;99732.19;4916018;29;20120;-66
2023/03/07 08:33:51;;;;;;;16.55;10.45;;;;;;;10.67;54.44;99748.78;4919385;29;20557;-67
2023/03/07 08:36:19;;;;;;;17.10;10.00;;;;;;;10.84;52.95;99732.91;4919679;29;20063;-67
2023/03/07 08:38:50;;;;;;;18.52;9.95;;;;;;;10.65;53.27;99743.56;4913023;29;20052;-67
2023/03/07 08:41:19;;;;;;;18.23;10.40;;;;;;;9.84;53.50;99745.94;4917511;29;20060;-73
2023/03/07 08:43:47;;;;;;;22.20;9.57;;;;;;;8.90;57.26;99750.94;4904450;29;20052;-74
2023/03/07 08:46:14;;;;;;;18.98;10.07;;;;;;;8.92;57.84;99743.19;4917128;29;20056;-74
2023/03/07 08:48:42;;;;;;;18.02;9.80;;;;;;;9.34;57.21;99738.72;4919107;29;20079;-73
2023/03/07 08:51:13;;;;;;;18.75;11.15;;;;;;;10.19;55.21;99730.03;4902359;29;20044;-74
2023/03/07 08:53:42;;;;;;;18.13;10.38;;;;;;;11.01;53.45;99731.91;4903588;29;20052;-75
2023/03/07 08:56:11;;;;;;;16.52;10.15;;;;;;;10.75;51.33;99721.16;4917258;29;20048;-76
2023/03/07 08:58:39;;;;;;;15.82;9.80;;;;;;;10.45;52.04;99725.13;4888450;29;20056;-73
2023/03/07 09:01:07;;;;;;;20.25;9.80;;;;;;;10.04;57.00;99725.09;4916766;29;20044;-75
2023/03/07 09:03:35;;;;;;;16.35;9.63;;;;;;;10.87;54.14;99723.94;4920773;29;20508;-75
2023/03/07 09:06:04;;;;;;;16.35;9.90;;;;;;;10.31;51.97;99715.53;4916683;29;20067;-71
2023/03/07 09:08:31;;;;;;;16.23;9.10;;;;;;;10.97;54.86;99722.69;4905255;29;20508;-73
2023/03/07 09:11:02;;;;;;;17.65;9.32;;;;;;;11.42;53.37;99726.25;4918444;29;20051;-74
2023/03/07 09:13:30;;;;;;;16.75;9.90;;;;;;;11.93;50.30;99720.09;4919372;29;20056;-74
2023/03/07 09:16:05;;;;;;;15.30;9.75;;;;;;;11.80;52.32;99720.44;4916632;29;20044;-73
2023/03/07 09:18:33;;;;;;;17.63;8.88;;;;;;;11.69;49.75;99714.56;4921889;29;20052;-74
2023/03/07 09:21:03;;;;;;;24.55;14.13;;;;;;;11.57;51.96;99717.31;4920848;29;20067;-74
2023/03/07 09:23:30;;;;;;;18.30;10.80;;;;;;;11.64;52.09;99712.06;4914897;29;20063;-66
2023/03/07 09:25:59;;;;;;;16.52;10.05;;;;;;;11.82;50.68;99707.09;4915507;29;20070;-66
2023/03/07 09:28:26;;;;;;;17.17;10.13;;;;;;;11.26;51.64;99706.81;4901766;29;20052;-66
2023/03/07 09:30:54;;;;;;;18.02;9.30;;;;;;;10.76;52.32;99708.97;4898356;29;20835;-68
2023/03/07 09:33:22;;;;;;;16.00;10.15;;;;;;;10.51;52.57;99710.03;4885575;29;20051;-67
2023/03/07 09:35:52;;;;;;;17.73;9.68;;;;;;;10.80;54.50;99701.66;4920854;29;20052;-67
2023/03/07 09:38:25;;;;;;;18.25;10.20;;;;;;;11.46;51.96;99702.34;4902126;29;20067;-70
2023/03/07 09:40:53;;;;;;;17.45;10.30;;;;;;;11.97;51.09;99700.88;4912438;29;20052;-66
2023/03/07 09:43:23;;;;;;;23.35;10.65;;;;;;;11.57;52.09;99697.19;4882896;29;20052;-65
2023/03/07 09:46:41;;;;;;;19.23;10.50;;;;;;;11.97;51.01;99695.34;4918523;29;20063;-67
2023/03/07 09:49:20;;;;;;;18.98;9.63;;;;;;;12.20;50.06;99690.94;4915077;29;20056;-67
2023/03/07 09:51:49;;;;;;;21.92;11.40;;;;;;;11.80;49.25;99688.13;4920814;29;20078;-67
2023/03/07 09:54:31;;;;;;;18.45;11.93;;;;;;;11.94;48.86;99683.03;4898742;29;20051;-69
2023/03/07 09:56:59;;;;;;;19.92;12.30;;;;;;;12.30;49.93;99690.44;4912209;29;20052;-67
2023/03/07 09:59:33;;;;;;;17.42;10.23;;;;;;;11.85;48.65;99684.34;4917822;29;20060;-68
2023/03/07 10:02:14;;;;;;;17.65;10.65;;;;;;;11.37;51.51;99684.31;4915326;29;20059;-68
2023/03/07 10:04:47;;;;;;;14.23;9.63;;;;;;;12.04;50.08;99684.53;4907882;29;20504;-67
2023/03/07 10:07:15;;;;;;;37.10;11.80;;;;;;;12.48;49.39;99678.75;4915972;29;20056;-68
2023/03/07 10:09:43;;;;;;;35.50;12.23;;;;;;;10.92;51.44;99676.06;4921311;29;20044;-66
2023/03/07 10:12:17;;;;;;;44.00;12.65;;;;;;;11.81;51.20;99672.38;4896787;29;20056;-68
2023/03/07 10:15:09;;;;;;;30.45;10.90;;;;;;;12.02;51.11;99673.84;4915279;29;20055;-68
2023/03/07 10:17:39;;;;;;;70.82;14.55;;;;;;;12.04;49.70;99656.94;4892345;29;20052;-73
2023/03/07 10:20:28;;;;;;;37.58;11.60;;;;;;;11.99;49.06;99673.75;4916047;29;20064;-74
2023/03/07 10:23:05;;;;;;;39.75;12.77;;;;;;;11.41;48.31;99657.66;4884360;29;20052;-74
2023/03/07 10:25:39;;;;;;;50.30;13.52;;;;;;;11.29;51.66;99670.31;4919019;29;20055;-75
2023/03/07 10:28:32;;;;;;;67.78;14.55;;;;;;;11.61;51.64;99665.81;4919989;29;20052;-74
2023/03/07 10:31:38;;;;;;;140.52;22.13;;;;;;;11.42;49.48;99664.78;4915023;29;20044;-75
2023/03/07 10:34:17;;;;;;;26.23;11.02;;;;;;;11.41;48.73;99663.16;4896195;29;20056;-75
2023/03/07 10:37:12;;;;;;;15.98;9.20;;;;;;;11.17;52.53;99666.72;4921322;29;20492;-74
2023/03/07 10:39:52;;;;;;;22.27;10.60;;;;;;;11.32;52.50;99652.25;4900914;29;20088;-69
2023/03/07 10:42:21;;;;;;;17.05;9.93;;;;;;;10.98;49.65;99658.19;4914432;29;20052;-67
2023/03/07 10:44:52;;;;;;;15.07;8.90;;;;;;;11.44;51.98;99651.47;4917037;29;20056;-67
2023/03/07 10:47:23;;;;;;;20.63;9.73;;;;;;;12.06;49.88;99651.88;4916410;29;20060;-68
2023/03/07 10:50:26;;;;;;;14.68;9.68;;;;;;;12.32;49.03;99642.03;4886424;29;20044;-68
2023/03/07 10:52:57;;;;;;;16.00;8.75;;;;;;;12.14;50.42;99650.91;4896752;29;20064;-67
2023/03/07 10:55:42;;;;;;;16.98;9.23;;;;;;;12.00;50.11;99642.22;4915030;29;20063;-68
2023/03/07 10:58:18;;;;;;;12.55;7.63;;;;;;;12.30;44.63;99638.00;4917004;29;20048;-67
2023/03/07 11:00:59;;;;;;;15.82;9.30;;;;;;;11.37;50.72;99641.00;4916863;29;21964;-68
2023/03/07 11:03:27;;;;;;;16.10;9.65;;;;;;;11.92;49.20;99632.94;4919546;29;20043;-67
2023/03/07 11:05:54;;;;;;;17.63;8.88;;;;;;;11.68;47.12;99629.41;4924555;29;20043;-67
2023/03/07 11:08:30;;;;;;;14.30;8.57;;;;;;;11.76;47.97;99636.75;4942294;29;20064;-67
2023/03/07 11:10:59;;;;;;;13.27;8.43;;;;;;;12.43;48.30;99632.06;4918323;29;20052;-67
2023/03/07 11:13:27;;;;;;;14.80;8.68;;;;;;;12.32;48.86;99628.22;4897371;29;20059;-67
2023/03/07 11:16:17;;;;;;;14.70;9.15;;;;;;;12.29;46.35;99628.91;4904732;29;20055;-68
2023/03/07 11:18:46;;;;;;;16.90;10.23;;;;;;;12.65;46.46;99627.13;4917826;29;20040;-67
2023/03/07 11:21:32;;;;;;;13.77;9.23;;;;;;;12.69;45.08;99622.50;4921447;29;20048;-67
2023/03/07 11:24:01;;;;;;;11.80;7.82;;;;;;;13.14;46.65;99629.28;4908572;29;20070;-67
2023/03/07 11:26:31;;;;;;;14.52;7.65;;;;;;;12.83;46.71;99639.47;4917799;29;20151;-68
2023/03/07 11:29:12;;;;;;;16.27;8.25;;;;;;;12.68;47.46;99643.00;4921928;29;20396;-67
2023/03/07 11:32:04;;;;;;;14.73;8.15;;;;;;;12.14;45.10;99634.34;4922782;29;20047;-68
2023/03/07 11:34:55;;;;;;;14.45;7.88;;;;;;;12.17;46.85;99647.44;4914441;29;20064;-66
2023/03/07 11:37:38;;;;;;;12.93;6.88;;;;;;;10.78;50.50;99650.78;4902186;29;20060;-67
2023/03/07 11:40:09;;;;;;;10.38;6.63;;;;;;;10.81;48.23;99648.16;4916643;29;20048;-67